sensor_id;sensor_type;location;lat;lon;timestamp;temperature;humidity
4433;DHT22;2229;48.708;9.706;2023-06-22T00:00:22;21.70;99.90
4433;DHT22;2229;48.708;9.706;2023-06-22T00:02:49;21.60;99.90
4433;DHT22;2229;48.708;9.706;2023-06-22T00:05:16;21.60;99.90
4433;DHT22;2229;48.708;9.706;2023-06-22T00:07:43;21.50;99.90
4433;DHT22;2229;48.708;9.706;2023-06-22T00:10:10;21.50;99.90
4433;DHT22;2229;48.708;9.706;2023-06-22T00:12:39;21.40;99.90
4433;DHT22;2229;48.708;9.706;2023-06-22T00:15:07;21.40;99.90
4433;DHT22;2229;48.708;9.706;2023-06-22T00:17:34;21.40;99.90
4433;DHT22;2229;48.708;9.706;2023-06-22T00:20:01;21.30;99.90
4433;DHT22;2229;48.708;9.706;2023-06-22T00:22:32;21.30;99.90
4433;DHT22;2229;48.708;9.706;2023-06-22T00:25:06;21.30;99.90
4433;DHT22;2229;48.708;9.706;2023-06-22T00:27:34;21.30;99.90
4433;DHT22;2229;48.708;9.706;2023-06-22T00:30:03;21.20;99.90
4433;DHT22;2229;48.708;9.706;2023-06-22T00:32:31;21.30;99.90
4433;DHT22;2229;48.708;9.706;2023-06-22T00:34:59;21.20;99.90
4433;DHT22;2229;48.708;9.706;2023-06-22T00:37:26;21.20;99.90
4433;DHT22;2229;48.708;9.706;2023-06-22T00:39:55;21.10;99.90
4433;DHT22;2229;48.708;9.706;2023-06-22T00:42:22;21.10;99.90
4433;DHT22;2229;48.708;9.706;2023-06-22T00:44:49;21.10;99.90
4433;DHT22;2229;48.708;9.706;2023-06-22T00:47:18;21.10;99.90
4433;DHT22;2229;48.708;9.706;2023-06-22T00:49:49;21.00;99.90
4433;DHT22;2229;48.708;9.706;2023-06-22T00:52:19;20.90;99.90
4433;DHT22;2229;48.708;9.706;2023-06-22T00:54:47;20.90;99.90
4433;DHT22;2229;48.708;9.706;2023-06-22T00:57:15;20.90;99.90
4433;DHT22;2229;48.708;9.706;2023-06-22T00:59:43;20.90;99.90
4433;DHT22;2229;48.708;9.706;2023-06-22T01:02:11;20.80;99.90
4433;DHT22;2229;48.708;9.706;2023-06-22T01:04:40;20.80;99.90
4433;DHT22;2229;48.708;9.706;2023-06-22T01:07:22;20.80;99.90
4433;DHT22;2229;48.708;9.706;2023-06-22T01:09:59;20.80;99.90
4433;DHT22;2229;48.708;9.706;2023-06-22T01:12:32;20.70;99.90
4433;DHT22;2229;48.708;9.706;2023-06-22T01:15:05;20.70;99.90
4433;DHT22;2229;48.708;9.706;2023-06-22T01:17:35;20.70;99.90
4433;DHT22;2229;48.708;9.706;2023-06-22T01:20:07;20.70;99.90
4433;DHT22;2229;48.708;9.706;2023-06-22T01:22:46;20.60;99.90
4433;DHT22;2229;48.708;9.706;2023-06-22T01:25:20;20.60;99.90
4433;DHT22;2229;48.708;9.706;2023-06-22T01:27:52;20.50;99.90
4433;DHT22;2229;48.708;9.706;2023-06-22T01:30:24;20.50;99.90
4433;DHT22;2229;48.708;9.706;2023-06-22T01:32:54;20.40;99.90
4433;DHT22;2229;48.708;9.706;2023-06-22T01:35:22;20.50;99.90
4433;DHT22;2229;48.708;9.706;2023-06-22T01:37:49;20.40;99.90
4433;DHT22;2229;48.708;9.706;2023-06-22T01:40:19;20.40;99.90
4433;DHT22;2229;48.708;9.706;2023-06-22T01:42:48;20.40;99.90
4433;DHT22;2229;48.708;9.706;2023-06-22T01:45:18;20.40;99.90
4433;DHT22;2229;48.708;9.706;2023-06-22T01:47:47;20.40;99.90
4433;DHT22;2229;48.708;9.706;2023-06-22T01:50:15;20.30;99.90
4433;DHT22;2229;48.708;9.706;2023-06-22T01:52:42;20.30;99.90
4433;DHT22;2229;48.708;9.706;2023-06-22T01:55:09;20.30;99.90
4433;DHT22;2229;48.708;9.706;2023-06-22T01:57:37;20.30;99.90
4433;DHT22;2229;48.708;9.706;2023-06-22T02:00:06;20.40;99.90
4433;DHT22;2229;48.708;9.706;2023-06-22T02:02:49;20.40;99.90
4433;DHT22;2229;48.708;9.706;2023-06-22T02:05:19;20.40;99.90
4433;DHT22;2229;48.708;9.706;2023-06-22T02:07:52;20.40;99.90
4433;DHT22;2229;48.708;9.706;2023-06-22T02:10:21;20.40;99.90
4433;DHT22;2229;48.708;9.706;2023-06-22T02:12:50;20.40;99.90
4433;DHT22;2229;48.708;9.706;2023-06-22T02:15:18;20.30;99.90
4433;DHT22;2229;48.708;9.706;2023-06-22T02:17:48;20.30;99.90
4433;DHT22;2229;48.708;9.706;2023-06-22T02:20:15;20.30;99.90
4433;DHT22;2229;48.708;9.706;2023-06-22T02:22:42;20.20;99.90
4433;DHT22;2229;48.708;9.706;2023-06-22T02:25:10;20.20;99.90
4433;DHT22;2229;48.708;9.706;2023-06-22T02:27:37;20.10;99.90
4433;DHT22;2229;48.708;9.706;2023-06-22T02:30:07;20.10;99.90
4433;DHT22;2229;48.708;9.706;2023-06-22T02:32:36;20.10;99.90
4433;DHT22;2229;48.708;9.706;2023-06-22T02:35:05;20.00;99.90
4433;DHT22;2229;48.708;9.706;2023-06-22T02:37:32;20.00;99.90
4433;DHT22;2229;48.708;9.706;2023-06-22T02:39:59;20.00;99.90
4433;DHT22;2229;48.708;9.706;2023-06-22T02:42:27;20.00;99.90
4433;DHT22;2229;48.708;9.706;2023-06-22T02:44:54;19.90;99.90
4433;DHT22;2229;48.708;9.706;2023-06-22T02:47:21;19.90;99.90
4433;DHT22;2229;48.708;9.706;2023-06-22T02:49:49;19.90;99.90
4433;DHT22;2229;48.708;9.706;2023-06-22T02:52:18;19.90;99.90
4433;DHT22;2229;48.708;9.706;2023-06-22T02:54:46;20.00;99.90
4433;DHT22;2229;48.708;9.706;2023-06-22T02:57:14;20.00;99.90
4433;DHT22;2229;48.708;9.706;2023-06-22T02:59:43;20.00;99.90
4433;DHT22;2229;48.708;9.706;2023-06-22T03:02:12;20.00;99.90
4433;DHT22;2229;48.708;9.706;2023-06-22T03:04:40;20.00;99.90
4433;DHT22;2229;48.708;9.706;2023-06-22T03:07:07;20.00;99.90
4433;DHT22;2229;48.708;9.706;2023-06-22T03:09:36;20.10;99.90
4433;DHT22;2229;48.708;9.706;2023-06-22T03:12:04;20.00;99.90
4433;DHT22;2229;48.708;9.706;2023-06-22T03:14:42;20.10;99.90
4433;DHT22;2229;48.708;9.706;2023-06-22T03:17:09;20.10;99.90
4433;DHT22;2229;48.708;9.706;2023-06-22T03:19:37;20.10;99.90
4433;DHT22;2229;48.708;9.706;2023-06-22T03:22:04;20.20;99.90
4433;DHT22;2229;48.708;9.706;2023-06-22T03:24:32;20.20;99.90
4433;DHT22;2229;48.708;9.706;2023-06-22T03:27:02;20.20;99.90
4433;DHT22;2229;48.708;9.706;2023-06-22T03:29:31;20.20;99.90
4433;DHT22;2229;48.708;9.706;2023-06-22T03:31:58;20.10;99.90
4433;DHT22;2229;48.708;9.706;2023-06-22T03:34:26;20.10;99.90
4433;DHT22;2229;48.708;9.706;2023-06-22T03:36:53;20.00;99.90
4433;DHT22;2229;48.708;9.706;2023-06-22T03:39:21;20.00;99.90
4433;DHT22;2229;48.708;9.706;2023-06-22T03:41:48;19.90;99.90
4433;DHT22;2229;48.708;9.706;2023-06-22T03:44:19;19.90;99.90
4433;DHT22;2229;48.708;9.706;2023-06-22T03:46:46;19.80;99.90
4433;DHT22;2229;48.708;9.706;2023-06-22T03:49:13;19.80;99.90
4433;DHT22;2229;48.708;9.706;2023-06-22T03:51:40;19.80;99.90
4433;DHT22;2229;48.708;9.706;2023-06-22T03:54:07;19.90;99.90
4433;DHT22;2229;48.708;9.706;2023-06-22T03:56:35;19.90;99.90
4433;DHT22;2229;48.708;9.706;2023-06-22T03:59:02;19.90;99.90
4433;DHT22;2229;48.708;9.706;2023-06-22T04:01:31;19.90;99.90
4433;DHT22;2229;48.708;9.706;2023-06-22T04:03:58;19.90;99.90
4433;DHT22;2229;48.708;9.706;2023-06-22T04:06:25;19.90;99.90
4433;DHT22;2229;48.708;9.706;2023-06-22T04:08:53;19.90;99.90
4433;DHT22;2229;48.708;9.706;2023-06-22T04:11:20;20.00;99.90
4433;DHT22;2229;48.708;9.706;2023-06-22T04:13:47;20.00;99.90
4433;DHT22;2229;48.708;9.706;2023-06-22T04:16:17;20.00;99.90
4433;DHT22;2229;48.708;9.706;2023-06-22T04:18:45;20.10;99.90
4433;DHT22;2229;48.708;9.706;2023-06-22T04:21:13;20.10;99.90
4433;DHT22;2229;48.708;9.706;2023-06-22T04:23:41;20.10;99.90
4433;DHT22;2229;48.708;9.706;2023-06-22T04:26:08;20.10;99.90
4433;DHT22;2229;48.708;9.706;2023-06-22T04:28:36;20.10;99.90
4433;DHT22;2229;48.708;9.706;2023-06-22T04:31:03;20.00;99.90
4433;DHT22;2229;48.708;9.706;2023-06-22T04:33:31;20.10;99.90
4433;DHT22;2229;48.708;9.706;2023-06-22T04:35:59;20.10;99.90
4433;DHT22;2229;48.708;9.706;2023-06-22T04:38:27;20.10;99.90
4433;DHT22;2229;48.708;9.706;2023-06-22T04:40:54;20.10;99.90
4433;DHT22;2229;48.708;9.706;2023-06-22T04:43:21;20.20;99.90
4433;DHT22;2229;48.708;9.706;2023-06-22T04:45:48;20.30;99.90
4433;DHT22;2229;48.708;9.706;2023-06-22T04:48:18;20.30;99.90
4433;DHT22;2229;48.708;9.706;2023-06-22T04:50:45;20.40;99.90
4433;DHT22;2229;48.708;9.706;2023-06-22T04:53:14;20.50;99.90
4433;DHT22;2229;48.708;9.706;2023-06-22T04:55:41;20.60;99.90
4433;DHT22;2229;48.708;9.706;2023-06-22T04:58:11;20.60;99.90
4433;DHT22;2229;48.708;9.706;2023-06-22T05:00:38;20.80;99.90
4433;DHT22;2229;48.708;9.706;2023-06-22T05:03:06;20.80;99.90
4433;DHT22;2229;48.708;9.706;2023-06-22T05:05:36;20.90;99.90
4433;DHT22;2229;48.708;9.706;2023-06-22T05:08:04;21.00;99.90
4433;DHT22;2229;48.708;9.706;2023-06-22T05:10:34;21.10;99.90
4433;DHT22;2229;48.708;9.706;2023-06-22T05:13:01;21.20;99.90
4433;DHT22;2229;48.708;9.706;2023-06-22T05:15:28;21.30;99.90
4433;DHT22;2229;48.708;9.706;2023-06-22T05:17:59;21.30;99.90
4433;DHT22;2229;48.708;9.706;2023-06-22T05:20:31;21.40;99.90
4433;DHT22;2229;48.708;9.706;2023-06-22T05:22:59;21.50;99.90
4433;DHT22;2229;48.708;9.706;2023-06-22T05:25:26;21.60;99.90
4433;DHT22;2229;48.708;9.706;2023-06-22T05:27:57;21.70;99.90
4433;DHT22;2229;48.708;9.706;2023-06-22T05:30:24;21.80;99.90
4433;DHT22;2229;48.708;9.706;2023-06-22T05:32:51;21.90;99.90
4433;DHT22;2229;48.708;9.706;2023-06-22T05:35:18;22.00;99.90
4433;DHT22;2229;48.708;9.706;2023-06-22T05:37:45;22.10;99.90
4433;DHT22;2229;48.708;9.706;2023-06-22T05:40:13;22.20;99.90
4433;DHT22;2229;48.708;9.706;2023-06-22T05:42:40;22.30;99.90
4433;DHT22;2229;48.708;9.706;2023-06-22T05:45:09;22.40;99.90
4433;DHT22;2229;48.708;9.706;2023-06-22T05:47:37;22.50;99.90
4433;DHT22;2229;48.708;9.706;2023-06-22T05:50:05;22.60;99.90
4433;DHT22;2229;48.708;9.706;2023-06-22T05:52:35;22.80;99.90
4433;DHT22;2229;48.708;9.706;2023-06-22T05:55:03;22.90;99.90
4433;DHT22;2229;48.708;9.706;2023-06-22T05:57:31;23.00;99.90
4433;DHT22;2229;48.708;9.706;2023-06-22T05:59:58;23.10;99.90
4433;DHT22;2229;48.708;9.706;2023-06-22T06:02:26;23.10;99.90
4433;DHT22;2229;48.708;9.706;2023-06-22T06:04:54;23.20;99.90
4433;DHT22;2229;48.708;9.706;2023-06-22T06:07:21;23.30;99.90
4433;DHT22;2229;48.708;9.706;2023-06-22T06:09:48;23.40;99.90
4433;DHT22;2229;48.708;9.706;2023-06-22T06:12:16;23.50;99.90
4433;DHT22;2229;48.708;9.706;2023-06-22T06:14:43;23.50;99.90
4433;DHT22;2229;48.708;9.706;2023-06-22T06:17:10;23.60;99.90
4433;DHT22;2229;48.708;9.706;2023-06-22T06:19:39;23.70;99.90
4433;DHT22;2229;48.708;9.706;2023-06-22T06:22:06;23.80;99.90
4433;DHT22;2229;48.708;9.706;2023-06-22T06:24:33;23.90;99.90
4433;DHT22;2229;48.708;9.706;2023-06-22T06:27:00;23.90;99.20
4433;DHT22;2229;48.708;9.706;2023-06-22T06:29:30;23.90;98.50
4433;DHT22;2229;48.708;9.706;2023-06-22T06:31:57;24.00;98.30
4433;DHT22;2229;48.708;9.706;2023-06-22T06:34:24;24.10;98.00
4433;DHT22;2229;48.708;9.706;2023-06-22T06:36:53;24.10;97.80
4433;DHT22;2229;48.708;9.706;2023-06-22T06:39:20;24.20;97.60
4433;DHT22;2229;48.708;9.706;2023-06-22T06:41:47;24.30;97.20
4433;DHT22;2229;48.708;9.706;2023-06-22T06:44:15;24.40;96.80
4433;DHT22;2229;48.708;9.706;2023-06-22T06:46:42;24.50;96.80
4433;DHT22;2229;48.708;9.706;2023-06-22T06:49:12;24.60;96.40
4433;DHT22;2229;48.708;9.706;2023-06-22T06:51:39;24.70;95.60
4433;DHT22;2229;48.708;9.706;2023-06-22T06:54:07;24.80;94.80
4433;DHT22;2229;48.708;9.706;2023-06-22T06:56:35;24.90;94.80
4433;DHT22;2229;48.708;9.706;2023-06-22T06:59:03;25.00;94.90
4433;DHT22;2229;48.708;9.706;2023-06-22T07:01:30;25.10;94.80
4433;DHT22;2229;48.708;9.706;2023-06-22T07:03:59;25.10;94.70
4433;DHT22;2229;48.708;9.706;2023-06-22T07:06:26;25.30;94.30
4433;DHT22;2229;48.708;9.706;2023-06-22T07:08:57;25.40;93.80
4433;DHT22;2229;48.708;9.706;2023-06-22T07:11:26;25.50;93.70
4433;DHT22;2229;48.708;9.706;2023-06-22T07:13:53;25.60;92.60
4433;DHT22;2229;48.708;9.706;2023-06-22T07:16:21;25.60;92.20
4433;DHT22;2229;48.708;9.706;2023-06-22T07:18:48;25.70;92.30
4433;DHT22;2229;48.708;9.706;2023-06-22T07:21:16;25.80;92.30
4433;DHT22;2229;48.708;9.706;2023-06-22T07:23:43;25.90;91.80
4433;DHT22;2229;48.708;9.706;2023-06-22T07:26:10;26.00;91.30
4433;DHT22;2229;48.708;9.706;2023-06-22T07:28:39;26.10;90.70
4433;DHT22;2229;48.708;9.706;2023-06-22T07:31:07;26.20;90.40
4433;DHT22;2229;48.708;9.706;2023-06-22T07:33:34;26.30;89.80
4433;DHT22;2229;48.708;9.706;2023-06-22T07:36:02;26.40;88.90
4433;DHT22;2229;48.708;9.706;2023-06-22T07:38:33;26.40;87.40
4433;DHT22;2229;48.708;9.706;2023-06-22T07:41:01;26.50;87.60
4433;DHT22;2229;48.708;9.706;2023-06-22T07:43:31;26.60;87.60
4433;DHT22;2229;48.708;9.706;2023-06-22T07:46:00;26.70;87.80
4433;DHT22;2229;48.708;9.706;2023-06-22T07:48:27;26.80;87.50
4433;DHT22;2229;48.708;9.706;2023-06-22T07:50:55;26.90;87.30
4433;DHT22;2229;48.708;9.706;2023-06-22T07:53:22;27.00;86.00
4433;DHT22;2229;48.708;9.706;2023-06-22T07:55:49;27.10;85.00
4433;DHT22;2229;48.708;9.706;2023-06-22T07:58:17;27.20;85.40
4433;DHT22;2229;48.708;9.706;2023-06-22T08:00:46;27.30;85.20
4433;DHT22;2229;48.708;9.706;2023-06-22T08:03:16;27.40;84.90
4433;DHT22;2229;48.708;9.706;2023-06-22T08:05:43;27.50;85.10
4433;DHT22;2229;48.708;9.706;2023-06-22T08:08:10;27.60;85.30
4433;DHT22;2229;48.708;9.706;2023-06-22T08:10:37;27.70;84.70
4433;DHT22;2229;48.708;9.706;2023-06-22T08:13:05;27.70;84.50
4433;DHT22;2229;48.708;9.706;2023-06-22T08:15:32;27.80;84.10
4433;DHT22;2229;48.708;9.706;2023-06-22T08:17:59;27.90;83.90
4433;DHT22;2229;48.708;9.706;2023-06-22T08:20:28;27.90;83.30
4433;DHT22;2229;48.708;9.706;2023-06-22T08:22:55;28.00;83.40
4433;DHT22;2229;48.708;9.706;2023-06-22T08:25:24;28.00;83.00
4433;DHT22;2229;48.708;9.706;2023-06-22T08:27:51;28.10;82.90
4433;DHT22;2229;48.708;9.706;2023-06-22T08:30:18;28.20;83.10
4433;DHT22;2229;48.708;9.706;2023-06-22T08:32:45;28.20;82.70
4433;DHT22;2229;48.708;9.706;2023-06-22T08:35:12;28.20;83.20
4433;DHT22;2229;48.708;9.706;2023-06-22T08:37:41;28.40;83.10
4433;DHT22;2229;48.708;9.706;2023-06-22T08:40:09;28.50;83.20
4433;DHT22;2229;48.708;9.706;2023-06-22T08:42:37;28.50;82.50
4433;DHT22;2229;48.708;9.706;2023-06-22T08:45:05;28.70;82.60
4433;DHT22;2229;48.708;9.706;2023-06-22T08:47:33;28.80;81.80
4433;DHT22;2229;48.708;9.706;2023-06-22T08:50:00;28.80;81.10
4433;DHT22;2229;48.708;9.706;2023-06-22T08:52:28;28.90;80.90
4433;DHT22;2229;48.708;9.706;2023-06-22T08:54:57;29.00;81.50
4433;DHT22;2229;48.708;9.706;2023-06-22T08:57:25;29.10;81.00
4433;DHT22;2229;48.708;9.706;2023-06-22T08:59:52;29.30;80.60
4433;DHT22;2229;48.708;9.706;2023-06-22T09:02:19;29.30;80.80
4433;DHT22;2229;48.708;9.706;2023-06-22T09:04:47;29.40;79.80
4433;DHT22;2229;48.708;9.706;2023-06-22T09:07:14;29.50;79.10
4433;DHT22;2229;48.708;9.706;2023-06-22T09:09:48;29.60;79.60
4433;DHT22;2229;48.708;9.706;2023-06-22T09:12:16;29.60;79.40
4433;DHT22;2229;48.708;9.706;2023-06-22T09:14:45;29.60;79.80
4433;DHT22;2229;48.708;9.706;2023-06-22T09:17:13;29.60;79.90
4433;DHT22;2229;48.708;9.706;2023-06-22T09:19:41;29.60;80.40
4433;DHT22;2229;48.708;9.706;2023-06-22T09:22:08;29.70;80.70
4433;DHT22;2229;48.708;9.706;2023-06-22T09:24:36;29.80;81.30
4433;DHT22;2229;48.708;9.706;2023-06-22T09:27:04;29.90;80.90
4433;DHT22;2229;48.708;9.706;2023-06-22T09:29:33;30.00;80.40
4433;DHT22;2229;48.708;9.706;2023-06-22T09:32:00;30.10;81.50
4433;DHT22;2229;48.708;9.706;2023-06-22T09:34:28;30.10;80.30
4433;DHT22;2229;48.708;9.706;2023-06-22T09:36:57;30.20;80.10
4433;DHT22;2229;48.708;9.706;2023-06-22T09:39:26;30.20;79.70
4433;DHT22;2229;48.708;9.706;2023-06-22T09:41:53;30.30;79.90
4433;DHT22;2229;48.708;9.706;2023-06-22T09:44:20;30.40;79.60
4433;DHT22;2229;48.708;9.706;2023-06-22T09:46:49;30.50;79.70
4433;DHT22;2229;48.708;9.706;2023-06-22T09:49:16;30.60;79.20
4433;DHT22;2229;48.708;9.706;2023-06-22T09:51:43;30.60;78.60
4433;DHT22;2229;48.708;9.706;2023-06-22T09:54:10;30.70;78.40
4433;DHT22;2229;48.708;9.706;2023-06-22T09:56:37;30.80;77.90
4433;DHT22;2229;48.708;9.706;2023-06-22T09:59:05;30.80;77.40
4433;DHT22;2229;48.708;9.706;2023-06-22T10:01:32;31.00;76.90
4433;DHT22;2229;48.708;9.706;2023-06-22T10:04:01;31.00;76.70
4433;DHT22;2229;48.708;9.706;2023-06-22T10:06:29;31.10;77.20
4433;DHT22;2229;48.708;9.706;2023-06-22T10:08:56;31.10;77.10
4433;DHT22;2229;48.708;9.706;2023-06-22T10:11:23;31.20;77.80
4433;DHT22;2229;48.708;9.706;2023-06-22T10:13:55;31.30;77.40
4433;DHT22;2229;48.708;9.706;2023-06-22T10:16:24;31.30;77.10
4433;DHT22;2229;48.708;9.706;2023-06-22T10:18:52;31.40;76.90
4433;DHT22;2229;48.708;9.706;2023-06-22T10:21:21;31.40;76.60
4433;DHT22;2229;48.708;9.706;2023-06-22T10:23:49;31.50;76.90
4433;DHT22;2229;48.708;9.706;2023-06-22T10:26:17;31.50;77.30
4433;DHT22;2229;48.708;9.706;2023-06-22T10:28:44;31.60;77.50
4433;DHT22;2229;48.708;9.706;2023-06-22T10:31:11;31.60;77.20
4433;DHT22;2229;48.708;9.706;2023-06-22T10:33:38;31.70;76.50
4433;DHT22;2229;48.708;9.706;2023-06-22T10:36:07;31.60;76.60
4433;DHT22;2229;48.708;9.706;2023-06-22T10:38:36;31.60;76.30
4433;DHT22;2229;48.708;9.706;2023-06-22T10:41:03;31.60;76.30
4433;DHT22;2229;48.708;9.706;2023-06-22T10:43:30;31.50;76.00
4433;DHT22;2229;48.708;9.706;2023-06-22T10:45:57;31.50;75.90
4433;DHT22;2229;48.708;9.706;2023-06-22T10:48:24;31.50;76.10
4433;DHT22;2229;48.708;9.706;2023-06-22T10:50:52;31.60;75.90
4433;DHT22;2229;48.708;9.706;2023-06-22T10:53:20;31.70;75.60
4433;DHT22;2229;48.708;9.706;2023-06-22T10:55:50;31.80;75.00
4433;DHT22;2229;48.708;9.706;2023-06-22T10:58:19;31.90;74.30
4433;DHT22;2229;48.708;9.706;2023-06-22T11:00:46;32.00;73.70
4433;DHT22;2229;48.708;9.706;2023-06-22T11:03:14;32.20;73.60
4433;DHT22;2229;48.708;9.706;2023-06-22T11:05:41;32.30;73.80
4433;DHT22;2229;48.708;9.706;2023-06-22T11:08:08;32.50;73.70
4433;DHT22;2229;48.708;9.706;2023-06-22T11:10:35;32.60;73.80
4433;DHT22;2229;48.708;9.706;2023-06-22T11:13:04;32.70;73.90
4433;DHT22;2229;48.708;9.706;2023-06-22T11:15:35;32.60;73.90
4433;DHT22;2229;48.708;9.706;2023-06-22T11:18:03;32.60;73.60
4433;DHT22;2229;48.708;9.706;2023-06-22T11:20:34;32.50;73.40
4433;DHT22;2229;48.708;9.706;2023-06-22T11:23:04;32.40;72.90
4433;DHT22;2229;48.708;9.706;2023-06-22T11:25:32;32.30;73.00
4433;DHT22;2229;48.708;9.706;2023-06-22T11:28:02;32.30;74.20
4433;DHT22;2229;48.708;9.706;2023-06-22T11:30:31;32.20;73.90
4433;DHT22;2229;48.708;9.706;2023-06-22T11:32:59;32.10;74.10
4433;DHT22;2229;48.708;9.706;2023-06-22T11:35:26;32.10;74.60
4433;DHT22;2229;48.708;9.706;2023-06-22T11:37:53;32.10;74.40
4433;DHT22;2229;48.708;9.706;2023-06-22T11:40:21;32.30;74.50
4433;DHT22;2229;48.708;9.706;2023-06-22T11:42:49;32.30;74.20
4433;DHT22;2229;48.708;9.706;2023-06-22T11:45:16;32.50;74.50
4433;DHT22;2229;48.708;9.706;2023-06-22T11:47:45;32.60;73.70
4433;DHT22;2229;48.708;9.706;2023-06-22T11:50:12;32.60;73.50
4433;DHT22;2229;48.708;9.706;2023-06-22T11:52:39;32.60;73.60
4433;DHT22;2229;48.708;9.706;2023-06-22T11:55:07;32.60;74.10
4433;DHT22;2229;48.708;9.706;2023-06-22T11:57:36;32.60;74.40
4433;DHT22;2229;48.708;9.706;2023-06-22T12:00:05;32.60;74.70
4433;DHT22;2229;48.708;9.706;2023-06-22T12:02:44;32.50;74.70
4433;DHT22;2229;48.708;9.706;2023-06-22T12:05:12;32.40;74.70
4433;DHT22;2229;48.708;9.706;2023-06-22T12:07:39;32.20;75.00
4433;DHT22;2229;48.708;9.706;2023-06-22T12:10:07;32.10;75.40
4433;DHT22;2229;48.708;9.706;2023-06-22T12:12:34;32.10;75.80
4433;DHT22;2229;48.708;9.706;2023-06-22T12:15:01;32.00;76.00
4433;DHT22;2229;48.708;9.706;2023-06-22T12:17:30;31.80;75.80
4433;DHT22;2229;48.708;9.706;2023-06-22T12:19:58;31.80;76.40
4433;DHT22;2229;48.708;9.706;2023-06-22T12:22:26;31.70;77.40
4433;DHT22;2229;48.708;9.706;2023-06-22T12:24:53;31.70;76.90
4433;DHT22;2229;48.708;9.706;2023-06-22T12:27:20;31.70;77.20
4433;DHT22;2229;48.708;9.706;2023-06-22T12:29:47;31.80;77.80
4433;DHT22;2229;48.708;9.706;2023-06-22T12:32:15;31.80;78.10
4433;DHT22;2229;48.708;9.706;2023-06-22T12:34:42;31.90;77.90
4433;DHT22;2229;48.708;9.706;2023-06-22T12:37:11;32.00;77.60
4433;DHT22;2229;48.708;9.706;2023-06-22T12:39:40;32.00;77.10
4433;DHT22;2229;48.708;9.706;2023-06-22T12:42:07;32.00;76.30
4433;DHT22;2229;48.708;9.706;2023-06-22T12:44:35;32.00;76.20
4433;DHT22;2229;48.708;9.706;2023-06-22T12:47:02;32.00;76.30
4433;DHT22;2229;48.708;9.706;2023-06-22T12:49:29;31.90;76.00
4433;DHT22;2229;48.708;9.706;2023-06-22T12:51:56;31.90;76.00
4433;DHT22;2229;48.708;9.706;2023-06-22T12:54:25;31.90;76.10
4433;DHT22;2229;48.708;9.706;2023-06-22T12:56:52;31.80;76.20
4433;DHT22;2229;48.708;9.706;2023-06-22T12:59:19;31.80;76.50
4433;DHT22;2229;48.708;9.706;2023-06-22T13:01:46;31.70;76.40
4433;DHT22;2229;48.708;9.706;2023-06-22T13:04:13;31.70;76.40
4433;DHT22;2229;48.708;9.706;2023-06-22T13:06:41;31.60;76.50
4433;DHT22;2229;48.708;9.706;2023-06-22T13:09:09;31.50;76.80
4433;DHT22;2229;48.708;9.706;2023-06-22T13:11:38;31.50;77.10
4433;DHT22;2229;48.708;9.706;2023-06-22T13:14:05;31.40;78.00
4433;DHT22;2229;48.708;9.706;2023-06-22T13:16:32;31.40;77.90
4433;DHT22;2229;48.708;9.706;2023-06-22T13:19:00;31.30;78.70
4433;DHT22;2229;48.708;9.706;2023-06-22T13:21:27;31.30;79.10
4433;DHT22;2229;48.708;9.706;2023-06-22T13:23:54;31.20;78.90
4433;DHT22;2229;48.708;9.706;2023-06-22T13:26:21;31.20;79.20
4433;DHT22;2229;48.708;9.706;2023-06-22T13:28:50;31.20;79.00
4433;DHT22;2229;48.708;9.706;2023-06-22T13:31:17;31.20;79.20
4433;DHT22;2229;48.708;9.706;2023-06-22T13:33:44;31.20;79.10
4433;DHT22;2229;48.708;9.706;2023-06-22T13:36:13;31.20;79.10
4433;DHT22;2229;48.708;9.706;2023-06-22T13:38:44;31.20;79.20
4433;DHT22;2229;48.708;9.706;2023-06-22T13:41:11;31.20;79.00
4433;DHT22;2229;48.708;9.706;2023-06-22T13:43:38;31.20;78.90
4433;DHT22;2229;48.708;9.706;2023-06-22T13:46:07;31.20;78.60
4433;DHT22;2229;48.708;9.706;2023-06-22T13:48:34;31.20;78.60
4433;DHT22;2229;48.708;9.706;2023-06-22T13:51:01;31.20;78.40
4433;DHT22;2229;48.708;9.706;2023-06-22T13:53:28;31.20;77.90
4433;DHT22;2229;48.708;9.706;2023-06-22T13:55:56;31.30;77.90
4433;DHT22;2229;48.708;9.706;2023-06-22T13:58:23;31.30;77.60
4433;DHT22;2229;48.708;9.706;2023-06-22T14:00:50;31.40;77.20
4433;DHT22;2229;48.708;9.706;2023-06-22T14:03:18;31.40;76.30
4433;DHT22;2229;48.708;9.706;2023-06-22T14:05:45;31.50;75.70
4433;DHT22;2229;48.708;9.706;2023-06-22T14:08:13;31.50;75.40
4433;DHT22;2229;48.708;9.706;2023-06-22T14:10:40;31.50;75.30
4433;DHT22;2229;48.708;9.706;2023-06-22T14:13:07;31.40;75.20
4433;DHT22;2229;48.708;9.706;2023-06-22T14:15:35;31.50;75.10
4433;DHT22;2229;48.708;9.706;2023-06-22T14:18:02;31.40;75.90
4433;DHT22;2229;48.708;9.706;2023-06-22T14:20:31;31.40;75.70
4433;DHT22;2229;48.708;9.706;2023-06-22T14:22:58;31.40;76.30
4433;DHT22;2229;48.708;9.706;2023-06-22T14:25:26;31.40;76.30
4433;DHT22;2229;48.708;9.706;2023-06-22T14:27:53;31.40;75.20
4433;DHT22;2229;48.708;9.706;2023-06-22T14:30:20;31.50;74.50
4433;DHT22;2229;48.708;9.706;2023-06-22T14:32:47;31.50;72.90
4433;DHT22;2229;48.708;9.706;2023-06-22T14:35:14;31.60;71.90
4433;DHT22;2229;48.708;9.706;2023-06-22T14:37:43;31.70;71.60
4433;DHT22;2229;48.708;9.706;2023-06-22T14:40:11;31.70;71.50
4433;DHT22;2229;48.708;9.706;2023-06-22T14:42:38;31.80;71.50
4433;DHT22;2229;48.708;9.706;2023-06-22T14:45:06;31.80;70.90
4433;DHT22;2229;48.708;9.706;2023-06-22T14:47:34;31.70;70.60
4433;DHT22;2229;48.708;9.706;2023-06-22T14:50:01;31.80;70.80
4433;DHT22;2229;48.708;9.706;2023-06-22T14:52:28;31.80;70.60
4433;DHT22;2229;48.708;9.706;2023-06-22T14:54:57;31.70;71.20
4433;DHT22;2229;48.708;9.706;2023-06-22T14:57:24;31.80;70.70
4433;DHT22;2229;48.708;9.706;2023-06-22T14:59:51;31.80;70.40
4433;DHT22;2229;48.708;9.706;2023-06-22T15:02:18;31.90;70.00
4433;DHT22;2229;48.708;9.706;2023-06-22T15:04:45;32.00;69.80
4433;DHT22;2229;48.708;9.706;2023-06-22T15:07:12;32.10;68.50
4433;DHT22;2229;48.708;9.706;2023-06-22T15:09:39;32.10;68.20
4433;DHT22;2229;48.708;9.706;2023-06-22T15:12:09;32.30;67.90
4433;DHT22;2229;48.708;9.706;2023-06-22T15:14:38;32.30;66.30
4433;DHT22;2229;48.708;9.706;2023-06-22T15:17:06;32.30;65.10
4433;DHT22;2229;48.708;9.706;2023-06-22T15:19:35;32.30;65.40
4433;DHT22;2229;48.708;9.706;2023-06-22T15:22:04;32.20;65.00
4433;DHT22;2229;48.708;9.706;2023-06-22T15:24:31;32.10;65.10
4433;DHT22;2229;48.708;9.706;2023-06-22T15:26:59;32.10;65.20
4433;DHT22;2229;48.708;9.706;2023-06-22T15:29:28;32.00;65.80
4433;DHT22;2229;48.708;9.706;2023-06-22T15:32:00;32.00;65.80
4433;DHT22;2229;48.708;9.706;2023-06-22T15:34:27;32.00;65.70
4433;DHT22;2229;48.708;9.706;2023-06-22T15:36:54;32.10;65.40
4433;DHT22;2229;48.708;9.706;2023-06-22T15:39:22;32.20;65.20
4433;DHT22;2229;48.708;9.706;2023-06-22T15:41:52;32.30;64.70
4433;DHT22;2229;48.708;9.706;2023-06-22T15:44:20;32.30;64.50
4433;DHT22;2229;48.708;9.706;2023-06-22T15:46:49;32.30;65.10
4433;DHT22;2229;48.708;9.706;2023-06-22T15:49:16;32.30;64.40
4433;DHT22;2229;48.708;9.706;2023-06-22T15:51:44;32.40;64.80
4433;DHT22;2229;48.708;9.706;2023-06-22T15:54:11;32.40;65.20
4433;DHT22;2229;48.708;9.706;2023-06-22T15:56:38;32.40;65.10
4433;DHT22;2229;48.708;9.706;2023-06-22T15:59:05;32.40;65.30
4433;DHT22;2229;48.708;9.706;2023-06-22T16:01:32;32.50;65.30
4433;DHT22;2229;48.708;9.706;2023-06-22T16:04:02;32.60;65.40
4433;DHT22;2229;48.708;9.706;2023-06-22T16:06:29;32.50;65.90